Time;durP1;ratioP1;P1;durP2;ratioP2;P2;SDS_P1;SDS_P2;PMS_P1;PMS_P2;Temp;Humidity;BMP_temperature;BMP_pressure;BME280_temperature;BME280_humidity;BME280_pressure;Samples;Min_cycle;Max_cycle;Signal;HPM_P1;HPM_P2
2023/04/21 00:01:55;;;;;;;6.28;4.40;;;8.10;99.90;;;;;;5019242;28;20049;-85
2023/04/21 00:04:22;;;;;;;6.32;4.18;;;8.10;99.90;;;;;;5003676;28;20057;-86
2023/04/21 00:06:51;;;;;;;5.07;3.63;;;8.10;99.90;;;;;;5004706;28;20064;-85
2023/04/21 00:09:19;;;;;;;6.15;3.45;;;8.20;99.90;;;;;;4971211;28;20136;-85
2023/04/21 00:11:49;;;;;;;4.85;3.28;;;8.10;99.90;;;;;;5000282;28;20053;-85
2023/04/21 00:14:16;;;;;;;7.72;4.10;;;8.20;99.90;;;;;;4997336;28;20704;-85
2023/04/21 00:16:43;;;;;;;5.78;4.43;;;8.20;99.90;;;;;;5003668;28;20060;-84
2023/04/21 00:19:12;;;;;;;6.55;4.32;;;8.10;99.90;;;;;;5004767;28;20137;-85
2023/04/21 00:21:39;;;;;;;5.55;4.35;;;8.10;99.90;;;;;;5000905;28;20110;-85
2023/04/21 00:24:07;;;;;;;7.40;3.90;;;8.10;99.90;;;;;;4997119;28;20432;-84
2023/04/21 00:26:34;;;;;;;8.77;5.13;;;8.10;99.90;;;;;;5005149;28;20081;-85
2023/04/21 00:29:01;;;;;;;7.60;5.60;;;8.10;99.90;;;;;;5004409;28;20052;-85
2023/04/21 00:31:28;;;;;;;11.00;5.47;;;8.10;99.90;;;;;;5004466;28;20073;-85
2023/04/21 00:33:55;;;;;;;7.10;5.55;;;8.10;99.90;;;;;;5004463;28;20464;-84
2023/04/21 00:36:23;;;;;;;8.45;5.80;;;8.10;99.90;;;;;;5003003;28;20119;-84
2023/04/21 00:38:50;;;;;;;8.73;5.35;;;8.10;99.90;;;;;;5000478;28;20524;-84
2023/04/21 00:41:17;;;;;;;6.85;4.70;;;8.20;99.90;;;;;;4986839;28;20053;-84
2023/04/21 00:44:07;;;;;;;6.25;4.70;;;8.10;99.90;;;;;;4983426;28;20077;-84
2023/04/21 00:46:35;;;;;;;6.43;4.32;;;8.10;99.90;;;;;;5011754;28;20045;-83
2023/04/21 00:49:05;;;;;;;7.05;4.85;;;8.10;99.90;;;;;;4983377;28;20057;-85
2023/04/21 00:51:33;;;;;;;6.45;4.80;;;8.10;99.90;;;;;;5001993;28;20135;-85
2023/04/21 00:54:05;;;;;;;9.02;5.60;;;8.10;99.90;;;;;;4995885;28;20077;-84
2023/04/21 00:56:33;;;;;;;11.43;6.18;;;8.10;99.90;;;;;;5001301;28;20116;-85
2023/04/21 00:59:01;;;;;;;9.32;6.32;;;8.10;99.90;;;;;;4997896;28;20136;-84
2023/04/21 01:01:33;;;;;;;8.70;6.35;;;8.10;99.90;;;;;;5003367;28;20136;-85
2023/04/21 01:04:02;;;;;;;6.20;4.43;;;8.10;99.90;;;;;;5003796;28;20227;-85
2023/04/21 01:06:31;;;;;;;8.00;5.85;;;8.10;99.90;;;;;;5001898;28;20114;-84
2023/04/21 01:08:58;;;;;;;6.88;4.88;;;8.20;99.90;;;;;;4998763;28;20057;-84
2023/04/21 01:11:25;;;;;;;5.68;4.57;;;8.20;99.90;;;;;;5003277;28;20445;-84
2023/04/21 01:13:55;;;;;;;7.50;5.22;;;8.10;99.90;;;;;;5002859;28;20098;-84
2023/04/21 01:16:22;;;;;;;8.80;5.57;;;8.10;99.90;;;;;;5003544;28;20081;-84
2023/04/21 01:18:52;;;;;;;7.28;5.43;;;8.10;99.90;;;;;;5004009;28;20123;-84
2023/04/21 01:21:20;;;;;;;7.10;5.28;;;8.10;99.90;;;;;;5004949;28;20059;-84
2023/04/21 01:23:47;;;;;;;5.10;4.22;;;8.10;99.90;;;;;;4984905;28;20046;-85
2023/04/21 01:26:17;;;;;;;5.70;4.40;;;8.10;99.90;;;;;;4998563;28;20060;-84
2023/04/21 01:28:46;;;;;;;6.28;4.57;;;8.10;99.90;;;;;;4992086;28;20571;-84
2023/04/21 01:31:14;;;;;;;8.20;6.15;;;8.10;99.90;;;;;;4998113;28;20115;-84
2023/04/21 01:33:41;;;;;;;7.97;5.50;;;8.00;99.90;;;;;;5009431;28;20045;-85
2023/04/21 01:36:08;;;;;;;5.78;5.18;;;8.10;99.90;;;;;;5009855;28;20376;-85
2023/04/21 01:38:40;;;;;;;5.78;4.57;;;8.10;99.90;;;;;;5008786;28;20088;-84
2023/04/21 01:41:08;;;;;;;5.55;4.60;;;8.10;99.90;;;;;;5026460;28;20053;-84
2023/04/21 01:43:36;;;;;;;6.97;4.25;;;8.20;99.90;;;;;;5009972;28;20046;-84
2023/04/21 01:46:03;;;;;;;5.25;4.38;;;8.10;99.90;;;;;;5006225;28;20046;-85
2023/04/21 01:48:30;;;;;;;5.18;4.18;;;8.10;99.90;;;;;;5013406;28;20045;-84
2023/04/21 01:50:57;;;;;;;7.90;4.50;;;8.10;99.90;;;;;;5010359;28;20049;-85
2023/04/21 01:53:25;;;;;;;5.82;4.60;;;8.10;99.90;;;;;;5008916;28;20045;-84
2023/04/21 01:55:52;;;;;;;5.68;4.43;;;8.10;99.90;;;;;;5024369;28;20129;-84
2023/04/21 01:58:20;;;;;;;5.97;4.20;;;8.10;99.90;;;;;;5009598;28;20049;-84
2023/04/21 02:00:47;;;;;;;5.32;3.60;;;8.10;99.90;;;;;;5005616;28;20060;-84
2023/04/21 02:03:14;;;;;;;4.55;3.78;;;8.10;99.90;;;;;;5007152;28;20053;-84
2023/04/21 02:05:42;;;;;;;6.68;4.22;;;8.10;99.90;;;;;;5009561;28;20050;-85
2023/04/21 02:08:09;;;;;;;8.20;4.55;;;8.00;99.90;;;;;;5010110;28;20148;-84
2023/04/21 02:10:36;;;;;;;7.13;5.05;;;7.90;99.90;;;;;;5006201;28;20135;-84
2023/04/21 02:13:03;;;;;;;7.47;5.43;;;7.80;99.90;;;;;;5009028;28;20049;-83
2023/04/21 02:15:30;;;;;;;12.57;8.02;;;7.70;99.90;;;;;;5008632;28;20401;-84
2023/04/21 02:17:57;;;;;;;10.57;7.68;;;7.60;99.90;;;;;;5025597;28;20091;-84
2023/04/21 02:20:24;;;;;;;7.60;6.47;;;7.50;99.90;;;;;;5005677;28;20133;-84
2023/04/21 02:22:51;;;;;;;8.30;6.57;;;7.40;99.90;;;;;;5002968;28;20081;-84
2023/04/21 02:25:18;;;;;;;9.30;6.97;;;7.40;99.90;;;;;;5008612;28;20468;-84
2023/04/21 02:27:45;;;;;;;9.25;6.30;;;7.30;99.90;;;;;;5008939;28;20041;-83
2023/04/21 02:30:12;;;;;;;12.00;7.97;;;7.30;99.90;;;;;;5007418;28;20088;-85
2023/04/21 02:32:39;;;;;;;10.32;7.07;;;7.20;99.90;;;;;;5024106;28;20120;-83
2023/04/21 02:35:07;;;;;;;10.05;7.75;;;7.10;99.90;;;;;;5005757;28;20056;-84
2023/04/21 02:37:34;;;;;;;10.68;7.35;;;7.10;99.90;;;;;;4989817;28;20111;-83
2023/04/21 02:40:01;;;;;;;8.48;7.07;;;7.00;99.90;;;;;;4977929;28;20060;-84
2023/04/21 02:42:27;;;;;;;12.25;7.10;;;7.00;99.90;;;;;;4990427;28;20065;-84
2023/04/21 02:44:54;;;;;;;10.95;7.45;;;7.00;99.90;;;;;;5024560;28;20153;-84
2023/04/21 02:47:21;;;;;;;9.27;7.13;;;6.90;99.90;;;;;;5027585;28;20099;-84
2023/04/21 02:49:48;;;;;;;9.25;7.13;;;6.90;99.90;;;;;;5026400;28;20061;-84
2023/04/21 02:52:15;;;;;;;8.05;6.63;;;6.80;99.90;;;;;;5011390;28;20045;-84
2023/04/21 02:54:42;;;;;;;8.93;6.05;;;6.80;99.90;;;;;;5008726;28;20635;-84
2023/04/21 02:57:09;;;;;;;11.15;7.65;;;6.80;99.90;;;;;;5011401;28;20053;-84
2023/04/21 02:59:36;;;;;;;8.25;6.35;;;6.70;99.90;;;;;;4994201;28;20057;-84
2023/04/21 03:02:03;;;;;;;10.40;7.28;;;6.70;99.90;;;;;;5010737;28;20119;-83
2023/04/21 03:04:31;;;;;;;10.50;6.90;;;6.70;99.90;;;;;;5010555;28;20056;-83
2023/04/21 03:06:58;;;;;;;10.55;7.10;;;6.60;99.90;;;;;;5010611;28;20045;-82
2023/04/21 03:09:25;;;;;;;8.05;6.55;;;6.70;99.90;;;;;;5009638;28;20160;-83
2023/04/21 03:11:52;;;;;;;8.95;6.70;;;6.70;99.90;;;;;;5010263;28;20049;-84
2023/04/21 03:14:19;;;;;;;8.57;6.53;;;6.70;99.90;;;;;;5019202;28;20123;-83
2023/04/21 03:16:46;;;;;;;11.38;6.22;;;6.80;99.90;;;;;;5026629;28;20481;-84
2023/04/21 03:19:13;;;;;;;10.43;7.03;;;6.80;99.90;;;;;;5010488;28;20535;-84
2023/04/21 03:21:41;;;;;;;7.70;6.10;;;6.70;99.90;;;;;;5010626;28;20404;-84
2023/04/21 03:24:08;;;;;;;8.07;6.22;;;6.70;99.90;;;;;;5006487;28;20060;-83
2023/04/21 03:26:35;;;;;;;12.35;6.88;;;6.70;99.90;;;;;;4991154;28;20120;-84
2023/04/21 03:29:02;;;;;;;8.13;6.32;;;6.70;99.90;;;;;;5006749;28;20426;-84
2023/04/21 03:31:28;;;;;;;11.90;8.80;;;6.70;99.90;;;;;;5006904;28;20144;-84
2023/04/21 03:33:55;;;;;;;14.05;9.10;;;6.70;99.90;;;;;;5012270;28;20054;-84
2023/04/21 03:36:22;;;;;;;12.15;7.72;;;6.70;99.90;;;;;;5017771;28;20045;-84
2023/04/21 03:38:49;;;;;;;9.20;6.93;;;6.70;99.90;;;;;;5024886;28;20057;-84
2023/04/21 03:41:16;;;;;;;8.27;6.13;;;6.70;99.90;;;;;;5025736;28;20072;-84
2023/04/21 03:43:43;;;;;;;6.55;5.43;;;6.60;99.90;;;;;;5006086;28;20128;-83
2023/04/21 03:46:20;;;;;;;8.25;6.45;;;6.70;99.90;;;;;;5003665;28;20123;-83
2023/04/21 03:48:47;;;;;;;10.18;6.78;;;6.60;99.90;;;;;;5008655;28;20115;-84
2023/04/21 03:51:14;;;;;;;12.00;7.50;;;6.60;99.90;;;;;;5009220;28;20057;-84
2023/04/21 03:53:41;;;;;;;11.35;7.97;;;6.60;99.90;;;;;;5007614;28;20663;-84
2023/04/21 03:56:08;;;;;;;11.70;7.65;;;6.60;99.90;;;;;;5007869;28;20478;-84
2023/04/21 03:58:35;;;;;;;10.05;7.22;;;6.60;99.90;;;;;;5009121;28;20088;-84
2023/04/21 04:01:05;;;;;;;10.48;6.82;;;6.50;99.90;;;;;;5024285;28;20069;-83
2023/04/21 04:03:32;;;;;;;13.32;7.75;;;6.60;99.90;;;;;;5009217;28;20073;-84
2023/04/21 04:06:01;;;;;;;9.07;6.38;;;6.60;99.90;;;;;;4988823;28;20370;-83
2023/04/21 04:08:29;;;;;;;7.35;5.82;;;6.60;99.90;;;;;;5005903;28;20058;-84
2023/04/21 04:10:55;;;;;;;8.80;7.00;;;6.60;99.90;;;;;;5008892;28;20607;-83
2023/04/21 04:13:26;;;;;;;8.10;6.70;;;6.60;99.90;;;;;;5008936;28;20045;-83
2023/04/21 04:15:53;;;;;;;9.13;6.40;;;6.60;99.90;;;;;;5008522;28;20522;-84
2023/04/21 04:18:20;;;;;;;8.75;6.97;;;6.60;99.90;;;;;;5024844;28;20416;-84
2023/04/21 04:20:48;;;;;;;9.82;6.60;;;6.60;99.90;;;;;;5008974;28;20053;-83
2023/04/21 04:23:15;;;;;;;9.60;7.18;;;6.60;99.90;;;;;;5024838;28;20049;-83
2023/04/21 04:25:42;;;;;;;11.32;7.72;;;6.50;99.90;;;;;;5006347;28;20459;-83
2023/04/21 04:28:09;;;;;;;9.45;6.53;;;6.50;99.90;;;;;;5008847;28;20140;-84
2023/04/21 04:30:36;;;;;;;12.35;9.23;;;6.50;99.90;;;;;;5008148;28;20168;-83
2023/04/21 04:33:03;;;;;;;9.32;7.45;;;6.50;99.90;;;;;;5008492;28;20088;-84
2023/04/21 04:35:30;;;;;;;10.73;8.15;;;6.50;99.90;;;;;;5007524;28;20400;-83
2023/04/21 04:37:57;;;;;;;8.48;7.63;;;6.50;99.90;;;;;;5008578;28;20053;-84
2023/04/21 04:40:24;;;;;;;9.27;7.28;;;6.50;99.90;;;;;;5006713;28;20073;-84
2023/04/21 04:42:51;;;;;;;10.75;6.95;;;6.50;99.90;;;;;;5025309;28;20119;-84
2023/04/21 04:45:20;;;;;;;11.38;9.02;;;6.60;99.90;;;;;;5006353;28;20446;-84
2023/04/21 04:47:48;;;;;;;10.55;8.70;;;6.60;99.90;;;;;;5008798;28;20080;-84
2023/04/21 04:50:15;;;;;;;13.82;9.63;;;6.70;99.90;;;;;;5010546;28;20097;-85
2023/04/21 04:52:45;;;;;;;18.80;10.10;;;6.70;99.90;;;;;;5004605;28;20068;-84
2023/04/21 04:55:13;;;;;;;11.32;8.27;;;6.70;99.90;;;;;;5007120;28;20128;-91
2023/04/21 04:57:40;;;;;;;13.27;9.63;;;6.80;99.90;;;;;;5021984;28;20481;-84
2023/04/21 05:00:10;;;;;;;13.43;9.88;;;6.80;99.90;;;;;;5006113;28;20139;-85
2023/04/21 05:02:37;;;;;;;11.63;7.90;;;6.80;99.90;;;;;;4975327;28;20046;-84
2023/04/21 05:05:05;;;;;;;12.55;8.70;;;6.80;99.90;;;;;;5009464;28;20041;-85
2023/04/21 05:07:42;;;;;;;16.50;8.30;;;6.90;99.90;;;;;;5011176;28;20445;-85
2023/04/21 05:10:09;;;;;;;10.98;8.25;;;6.90;99.90;;;;;;5032784;28;20092;-85
2023/04/21 05:12:36;;;;;;;11.93;8.43;;;7.00;99.90;;;;;;5012420;28;20528;-85
2023/04/21 05:15:05;;;;;;;10.80;7.55;;;7.00;99.90;;;;;;4991453;28;20607;-83
2023/04/21 05:17:32;;;;;;;9.90;6.95;;;7.00;99.90;;;;;;5004083;28;20125;-84
2023/04/21 05:19:59;;;;;;;9.30;7.68;;;7.20;99.90;;;;;;5017052;28;20057;-85
2023/04/21 05:22:26;;;;;;;12.07;7.97;;;7.20;99.90;;;;;;5005301;28;20051;-84
2023/04/21 05:24:53;;;;;;;11.55;8.32;;;7.20;99.90;;;;;;5035104;28;20487;-85
2023/04/21 05:27:20;;;;;;;10.95;7.60;;;7.30;99.90;;;;;;5013090;28;20107;-85
2023/04/21 05:29:47;;;;;;;14.07;8.73;;;7.30;99.90;;;;;;5002808;28;20643;-85
2023/04/21 05:32:14;;;;;;;12.50;8.38;;;7.40;99.90;;;;;;4999701;28;20049;-86
2023/04/21 05:34:41;;;;;;;10.70;7.40;;;7.40;99.90;;;;;;5002922;28;20586;-84
2023/04/21 05:37:10;;;;;;;8.02;7.13;;;7.50;99.90;;;;;;5004933;28;20057;-85
2023/04/21 05:39:37;;;;;;;10.93;7.80;;;7.50;99.90;;;;;;5003502;28;20049;-83
2023/04/21 05:42:05;;;;;;;10.40;7.55;;;7.50;99.90;;;;;;5033777;28;20089;-84
2023/04/21 05:44:32;;;;;;;8.70;7.30;;;7.50;99.90;;;;;;5018427;28;20060;-84
2023/04/21 05:46:59;;;;;;;10.15;7.68;;;7.60;99.90;;;;;;5002491;28;20124;-84
2023/04/21 05:49:26;;;;;;;16.33;9.43;;;7.60;99.90;;;;;;5001482;28;20045;-84
2023/04/21 05:51:53;;;;;;;15.45;9.68;;;7.50;99.90;;;;;;4983949;28;20053;-84
2023/04/21 05:54:20;;;;;;;11.52;8.40;;;7.60;99.90;;;;;;5022347;28;20061;-84
2023/04/21 05:56:47;;;;;;;10.55;7.88;;;7.60;99.90;;;;;;5000778;28;20057;-85
2023/04/21 05:59:15;;;;;;;10.50;7.25;;;7.60;99.90;;;;;;4986171;28;21389;-83
2023/04/21 06:01:42;;;;;;;10.90;7.90;;;7.60;99.90;;;;;;5019442;28;20045;-84
2023/04/21 06:04:09;;;;;;;13.52;8.32;;;7.60;99.90;;;;;;5002488;28;20123;-84
2023/04/21 06:06:37;;;;;;;10.95;8.20;;;7.60;99.90;;;;;;5002342;28;20060;-85
2023/04/21 06:09:05;;;;;;;10.38;7.07;;;7.70;99.90;;;;;;5001755;28;20131;-82
2023/04/21 06:11:32;;;;;;;8.25;6.00;;;7.70;99.90;;;;;;5002033;28;20111;-84
2023/04/21 06:14:00;;;;;;;7.68;5.60;;;7.80;99.90;;;;;;5002197;28;20049;-83
2023/04/21 06:16:28;;;;;;;7.47;5.30;;;7.80;99.90;;;;;;5017078;28;20492;-83
2023/04/21 06:18:57;;;;;;;9.48;6.13;;;7.90;99.90;;;;;;5002031;28;20045;-83
2023/04/21 06:21:24;;;;;;;7.88;6.75;;;7.90;99.90;;;;;;5006318;28;20111;-83
2023/04/21 06:23:51;;;;;;;7.93;6.18;;;7.90;99.90;;;;;;5004080;28;20061;-82
2023/04/21 06:26:18;;;;;;;9.02;6.95;;;8.00;99.90;;;;;;5006249;28;20107;-83
2023/04/21 06:28:45;;;;;;;9.20;7.22;;;8.00;99.90;;;;;;4997907;28;20081;-84
2023/04/21 06:31:15;;;;;;;8.73;6.55;;;8.00;99.90;;;;;;5000911;28;20137;-84
2023/04/21 06:33:42;;;;;;;6.60;5.35;;;8.00;99.90;;;;;;4997195;28;20497;-80
2023/04/21 06:36:09;;;;;;;7.50;6.57;;;8.10;99.90;;;;;;5010113;28;20054;-81
2023/04/21 06:38:38;;;;;;;8.52;5.55;;;8.10;99.90;;;;;;5029062;28;20144;-81
2023/04/21 06:41:05;;;;;;;7.53;5.20;;;8.20;99.90;;;;;;5014299;28;20150;-81
2023/04/21 06:43:32;;;;;;;5.68;4.63;;;8.40;99.90;;;;;;5014422;28;20238;-82
2023/04/21 06:46:00;;;;;;;7.30;5.18;;;8.50;99.90;;;;;;5014809;28;20156;-81
2023/04/21 06:48:28;;;;;;;7.20;5.43;;;8.50;99.90;;;;;;5014357;28;20124;-83
2023/04/21 06:50:55;;;;;;;5.65;5.00;;;8.60;99.90;;;;;;5009873;28;20156;-82
2023/04/21 06:53:22;;;;;;;5.07;4.35;;;8.70;99.90;;;;;;5031470;28;20107;-82
2023/04/21 06:55:49;;;;;;;6.40;5.45;;;8.70;99.90;;;;;;5012570;28;20065;-82
2023/04/21 06:58:16;;;;;;;7.82;5.75;;;8.70;99.90;;;;;;5013449;28;20049;-82
2023/04/21 07:00:46;;;;;;;8.23;5.85;;;8.70;99.90;;;;;;4996973;28;20134;-81
2023/04/21 07:03:13;;;;;;;5.78;4.45;;;8.70;99.90;;;;;;5008268;28;20057;-82
2023/04/21 07:05:40;;;;;;;5.25;4.60;;;8.80;99.90;;;;;;5032212;28;20113;-82
2023/04/21 07:08:07;;;;;;;5.18;4.03;;;8.80;99.90;;;;;;5013859;28;20072;-78
2023/04/21 07:10:34;;;;;;;5.20;4.43;;;8.80;99.90;;;;;;5013787;28;20061;-79
2023/04/21 07:13:01;;;;;;;9.30;6.63;;;8.90;99.90;;;;;;5014613;28;20080;-78
2023/04/21 07:15:28;;;;;;;8.32;5.70;;;8.80;99.90;;;;;;5015712;28;20382;-79
2023/04/21 07:17:55;;;;;;;6.78;5.03;;;8.70;99.90;;;;;;5017272;28;20073;-79
2023/04/21 07:20:21;;;;;;;8.80;4.95;;;8.70;99.90;;;;;;5016493;28;20053;-79
2023/04/21 07:22:48;;;;;;;6.00;4.40;;;8.70;99.90;;;;;;5016778;28;20088;-78
2023/04/21 07:25:15;;;;;;;5.85;4.35;;;8.70;99.90;;;;;;5031979;28;20064;-78
2023/04/21 07:27:42;;;;;;;5.60;3.92;;;8.70;99.90;;;;;;5036033;28;20089;-78
2023/04/21 07:30:09;;;;;;;4.80;3.33;;;8.70;99.90;;;;;;5014383;28;20136;-79
2023/04/21 07:32:37;;;;;;;4.70;3.58;;;8.70;99.90;;;;;;5015876;28;20134;-79
2023/04/21 07:35:05;;;;;;;4.75;2.80;;;8.60;99.90;;;;;;5016082;28;20605;-78
2023/04/21 07:37:32;;;;;;;3.45;2.58;;;8.60;99.90;;;;;;5015808;28;20061;-78
2023/04/21 07:39:59;;;;;;;4.07;3.08;;;8.60;99.90;;;;;;5015589;28;20061;-78
2023/04/21 07:42:26;;;;;;;5.80;4.38;;;8.60;99.90;;;;;;4996851;28;20119;-78
2023/04/21 07:44:54;;;;;;;4.30;3.58;;;8.50;99.90;;;;;;5013652;28;20117;-81
2023/04/21 07:47:21;;;;;;;3.83;2.97;;;8.50;99.90;;;;;;5014569;28;20053;-83
2023/04/21 07:49:48;;;;;;;3.90;3.20;;;8.50;99.90;;;;;;4998629;28;20477;-81
2023/04/21 07:52:15;;;;;;;3.45;2.80;;;8.60;99.90;;;;;;4996253;28;20049;-81
2023/04/21 07:54:42;;;;;;;5.20;3.55;;;8.60;99.90;;;;;;4997898;28;20160;-80
2023/04/21 07:57:09;;;;;;;5.30;3.83;;;8.60;99.90;;;;;;4997617;28;20085;-81
2023/04/21 07:59:36;;;;;;;5.53;4.93;;;8.50;99.90;;;;;;5015431;28;20550;-82
2023/04/21 08:02:03;;;;;;;5.57;4.40;;;8.40;99.90;;;;;;4998553;28;20081;-81
2023/04/21 08:04:30;;;;;;;6.63;5.50;;;8.40;99.90;;;;;;4997957;28;20049;-81
2023/04/21 08:06:57;;;;;;;5.45;4.95;;;8.40;99.90;;;;;;5014277;28;20501;-81
2023/04/21 08:09:25;;;;;;;8.80;6.70;;;8.40;99.90;;;;;;5008436;28;20099;-82
2023/04/21 08:11:53;;;;;;;7.75;5.70;;;8.40;99.90;;;;;;4996302;28;20089;-81
2023/04/21 08:14:20;;;;;;;8.45;5.28;;;8.40;99.90;;;;;;4994733;28;20046;-81
2023/04/21 08:16:47;;;;;;;7.50;5.13;;;8.40;99.90;;;;;;4988563;28;20629;-82
2023/04/21 08:19:15;;;;;;;6.28;5.57;;;8.40;99.90;;;;;;5013197;28;20136;-82
2023/04/21 08:21:42;;;;;;;5.90;4.50;;;8.40;99.90;;;;;;5010716;28;20053;-82
2023/04/21 08:24:09;;;;;;;4.70;3.95;;;8.50;99.90;;;;;;4994846;28;20063;-82
2023/04/21 08:26:36;;;;;;;4.47;3.92;;;8.50;99.90;;;;;;4982511;28;20164;-82
2023/04/21 08:29:05;;;;;;;7.35;5.90;;;8.40;99.90;;;;;;4993244;28;20127;-81
2023/04/21 08:31:33;;;;;;;5.85;4.82;;;8.40;99.90;;;;;;4995240;28;20081;-82
2023/04/21 08:34:00;;;;;;;7.97;5.88;;;8.40;99.90;;;;;;5014948;28;20046;-83
2023/04/21 08:36:29;;;;;;;7.28;5.70;;;8.30;99.90;;;;;;4999652;28;20097;-83
2023/04/21 08:38:56;;;;;;;6.38;5.13;;;8.20;99.90;;;;;;4996408;28;20054;-84
2023/04/21 08:41:24;;;;;;;4.82;4.32;;;8.20;99.90;;;;;;4999683;28;20060;-82
2023/04/21 08:43:51;;;;;;;5.47;4.00;;;8.20;99.90;;;;;;5000277;28;20784;-81
2023/04/21 08:46:18;;;;;;;4.88;4.40;;;8.20;99.90;;;;;;5001432;28;20073;-84
2023/04/21 08:48:46;;;;;;;4.20;3.80;;;8.20;99.90;;;;;;5004738;28;20168;-83
2023/04/21 08:51:17;;;;;;;3.78;3.33;;;8.20;99.90;;;;;;5004673;28;20145;-83
2023/04/21 08:53:45;;;;;;;5.35;3.70;;;8.20;99.90;;;;;;4998985;28;20306;-82
2023/04/21 08:56:12;;;;;;;4.97;4.40;;;8.20;99.90;;;;;;4999404;28;20072;-83
2023/04/21 08:58:40;;;;;;;8.48;5.00;;;8.20;99.90;;;;;;5014352;28;20045;-84
2023/04/21 09:01:07;;;;;;;5.95;4.18;;;8.20;99.90;;;;;;4998868;28;20053;-85
2023/04/21 09:03:34;;;;;;;5.38;4.65;;;8.20;99.90;;;;;;5013855;28;20132;-83
2023/04/21 09:06:06;;;;;;;5.47;4.25;;;8.20;99.90;;;;;;4996900;28;20046;-83
2023/04/21 09:08:38;;;;;;;4.28;3.72;;;8.20;99.90;;;;;;4999321;28;20099;-82
2023/04/21 09:11:05;;;;;;;5.47;4.70;;;8.20;99.90;;;;;;5011775;28;20485;-82
2023/04/21 09:13:35;;;;;;;4.45;4.05;;;8.20;99.90;;;;;;5028931;28;20093;-82
2023/04/21 09:16:04;;;;;;;6.18;3.70;;;8.20;99.90;;;;;;5041560;28;20194;-82
2023/04/21 09:18:35;;;;;;;4.07;2.90;;;8.20;99.90;;;;;;5036981;28;20054;-82
2023/04/21 09:21:09;;;;;;;3.40;2.55;;;8.20;99.90;;;;;;5024527;28;20301;-82
2023/04/21 09:23:47;;;;;;;2.70;2.00;;;8.20;99.90;;;;;;5023643;28;20075;-82
2023/04/21 09:26:14;;;;;;;3.53;1.95;;;8.20;99.90;;;;;;5020516;28;20076;-82
2023/04/21 09:28:42;;;;;;;2.10;1.80;;;8.30;99.90;;;;;;5004319;28;20053;-82
2023/04/21 09:31:27;;;;;;;2.90;2.03;;;8.30;99.90;;;;;;5004688;28;20448;-82
2023/04/21 09:33:58;;;;;;;2.90;2.13;;;8.30;99.90;;;;;;5002849;28;20125;-81
2023/04/21 09:36:28;;;;;;;3.28;2.55;;;8.30;99.90;;;;;;5002770;28;20048;-82
2023/04/21 09:39:02;;;;;;;2.88;2.38;;;8.20;99.90;;;;;;5019607;28;20069;-82
2023/04/21 09:41:49;;;;;;;2.70;2.00;;;8.10;99.90;;;;;;5008562;28;20049;-81
2023/04/21 09:44:16;;;;;;;2.97;2.00;;;8.20;99.90;;;;;;5005832;28;20124;-81
2023/04/21 09:46:45;;;;;;;2.42;1.70;;;8.30;99.90;;;;;;5005982;28;20064;-82
2023/04/21 09:49:13;;;;;;;2.15;1.60;;;8.30;99.90;;;;;;5003869;28;20050;-82
2023/04/21 09:51:41;;;;;;;2.17;1.65;;;8.30;99.90;;;;;;5004776;28;20053;-81
2023/04/21 09:54:30;;;;;;;2.17;1.70;;;8.30;99.90;;;;;;5009353;28;20046;-81
2023/04/21 09:57:00;;;;;;;1.70;1.40;;;8.30;99.90;;;;;;5007209;28;20061;-81
2023/04/21 09:59:46;;;;;;;2.10;1.70;;;8.30;99.90;;;;;;5006768;28;20049;-82
2023/04/21 10:02:13;;;;;;;2.13;1.50;;;8.30;99.90;;;;;;5019955;28;20045;-81
2023/04/21 10:04:40;;;;;;;1.85;1.50;;;8.30;99.90;;;;;;5004262;28;20485;-80
2023/04/21 10:07:08;;;;;;;2.20;1.50;;;8.40;99.90;;;;;;5007275;28;20057;-81
2023/04/21 10:09:44;;;;;;;2.72;1.50;;;8.50;99.90;;;;;;5006552;28;20443;-81
2023/04/21 10:12:11;;;;;;;1.25;1.13;;;8.60;99.90;;;;;;5008045;28;20124;-82
2023/04/21 10:14:37;;;;;;;1.75;1.40;;;8.80;99.90;;;;;;5006458;28;20068;-81
2023/04/21 10:17:06;;;;;;;1.20;1.10;;;9.20;99.90;;;;;;5007006;28;20144;-81
2023/04/21 10:19:43;;;;;;;2.13;1.88;;;9.50;99.90;;;;;;5007216;28;20136;-81
2023/04/21 10:22:10;;;;;;;1.48;1.10;;;9.70;99.90;;;;;;5009832;28;20057;-81
2023/04/21 10:24:41;;;;;;;1.90;1.17;;;9.80;99.90;;;;;;5002988;28;20049;-82
2023/04/21 10:27:11;;;;;;;1.65;1.30;;;10.00;99.90;;;;;;5004421;28;20068;-81
2023/04/21 10:29:38;;;;;;;1.17;1.08;;;10.00;99.90;;;;;;5001502;28;20049;-82
2023/04/21 10:32:41;;;;;;;1.83;1.23;;;10.10;99.90;;;;;;4992629;28;20060;-82
2023/04/21 10:35:09;;;;;;;1.35;1.10;;;10.10;99.90;;;;;;5003580;28;20054;-81
2023/04/21 10:37:36;;;;;;;2.60;1.40;;;10.20;99.90;;;;;;4986969;28;20053;-83
2023/04/21 10:40:08;;;;;;;1.90;1.40;;;10.20;99.90;;;;;;5007581;28;20148;-83
2023/04/21 10:42:35;;;;;;;1.50;1.38;;;10.10;99.90;;;;;;5009020;28;20461;-82
2023/04/21 10:45:07;;;;;;;2.00;1.20;;;10.10;99.90;;;;;;5003057;28;20053;-82
2023/04/21 10:47:42;;;;;;;1.98;1.50;;;10.10;99.90;;;;;;4971036;28;20168;-82
2023/04/21 10:50:20;;;;;;;2.35;1.70;;;10.10;99.90;;;;;;4993212;28;20145;-82
2023/04/21 10:53:08;;;;;;;1.70;1.40;;;10.20;99.90;;;;;;4976033;28;20666;-81
2023/04/21 10:55:35;;;;;;;2.00;1.58;;;10.30;99.90;;;;;;5023425;28;20056;-80
2023/04/21 10:58:04;;;;;;;2.72;2.05;;;10.30;99.90;;;;;;5019735;28;20184;-77
2023/04/21 11:00:31;;;;;;;1.90;1.60;;;10.30;99.90;;;;;;5017302;28;20136;-77
2023/04/21 11:03:02;;;;;;;1.90;1.70;;;10.30;99.90;;;;;;4997905;28;20156;-77
2023/04/21 11:05:34;;;;;;;1.30;1.13;;;10.40;99.90;;;;;;5017446;28;20099;-76
2023/04/21 11:08:10;;;;;;;2.00;1.60;;;10.60;99.90;;;;;;5016956;28;20175;-77
2023/04/21 11:10:48;;;;;;;1.90;1.35;;;10.90;99.90;;;;;;5008179;28;20070;-77
2023/04/21 11:13:16;;;;;;;1.80;1.38;;;11.10;99.90;;;;;;5014669;28;20065;-77
2023/04/21 11:15:56;;;;;;;1.67;1.27;;;11.40;99.90;;;;;;5014818;28;20154;-77
2023/04/21 11:18:42;;;;;;;1.73;1.30;;;11.60;99.90;;;;;;5005713;28;20117;-78
2023/04/21 11:21:21;;;;;;;1.13;1.02;;;11.60;99.90;;;;;;5025150;28;20393;-77
2023/04/21 11:23:55;;;;;;;1.80;1.35;;;11.70;99.90;;;;;;5005992;28;20042;-76
2023/04/21 11:26:37;;;;;;;1.58;1.33;;;11.50;99.90;;;;;;5004501;28;20049;-77
2023/04/21 11:29:07;;;;;;;1.33;1.15;;;11.40;99.90;;;;;;4991773;28;20063;-77
2023/04/21 11:31:35;;;;;;;2.25;1.50;;;11.10;99.90;;;;;;5014420;28;20191;-77
2023/04/21 11:34:05;;;;;;;1.55;1.35;;;11.00;99.90;;;;;;5016800;28;20741;-77
2023/04/21 11:36:33;;;;;;;2.03;1.60;;;10.90;99.90;;;;;;5015475;28;20050;-76
2023/04/21 11:39:19;;;;;;;2.45;2.00;;;10.80;99.90;;;;;;5013025;28;20615;-77
2023/04/21 11:41:49;;;;;;;2.55;2.00;;;10.70;99.90;;;;;;5010779;28;20083;-78
2023/04/21 11:44:36;;;;;;;2.33;2.05;;;10.70;99.90;;;;;;5009578;28;20180;-78
2023/04/21 11:47:16;;;;;;;4.18;3.08;;;10.80;99.90;;;;;;5012056;28;20144;-83
2023/04/21 11:49:47;;;;;;;3.30;2.78;;;10.70;99.90;;;;;;5014757;28;20061;-85
2023/04/21 11:52:24;;;;;;;3.53;3.17;;;10.80;99.90;;;;;;5015477;28;20072;-82
2023/04/21 11:55:01;;;;;;;3.00;2.50;;;10.90;99.90;;;;;;4998646;28;20136;-83
2023/04/21 11:57:29;;;;;;;2.75;2.47;;;11.00;99.90;;;;;;5013673;28;20054;-84
2023/04/21 12:00:01;;;;;;;2.72;2.30;;;11.20;99.90;;;;;;5012738;28;20084;-83
2023/04/21 12:02:29;;;;;;;2.17;1.90;;;11.60;99.90;;;;;;5001623;28;20144;-83
2023/04/21 12:05:10;;;;;;;2.90;2.60;;;12.00;99.90;;;;;;5018236;28;20053;-83
2023/04/21 12:07:41;;;;;;;2.20;1.98;;;12.20;99.90;;;;;;5015796;28;20227;-83
2023/04/21 12:10:18;;;;;;;2.65;2.45;;;12.40;99.90;;;;;;5015776;28;20049;-84
2023/04/21 12:12:45;;;;;;;2.40;2.20;;;12.70;99.90;;;;;;5012320;28;20189;-81
2023/04/21 12:15:18;;;;;;;2.42;2.20;;;12.70;99.90;;;;;;4993633;28;20440;-83
2023/04/21 12:17:52;;;;;;;2.20;2.00;;;12.70;99.90;;;;;;5016900;28;20432;-83
2023/04/21 12:20:23;;;;;;;3.72;2.70;;;12.70;99.90;;;;;;5001369;28;20562;-83
2023/04/21 12:22:51;;;;;;;3.00;2.70;;;12.60;99.90;;;;;;5016981;28;20063;-83
2023/04/21 12:25:18;;;;;;;2.80;2.50;;;12.60;99.90;;;;;;4997776;28;20050;-83
2023/04/21 12:27:51;;;;;;;2.97;2.38;;;12.60;99.90;;;;;;5015130;28;20199;-83
2023/04/21 12:30:19;;;;;;;2.17;1.98;;;12.70;99.90;;;;;;5015209;28;20134;-81
2023/04/21 12:32:46;;;;;;;2.90;2.70;;;12.70;99.90;;;;;;4999717;28;20053;-82
2023/04/21 12:35:15;;;;;;;2.40;2.20;;;12.80;99.90;;;;;;5017191;28;20083;-84
2023/04/21 12:37:42;;;;;;;3.55;2.85;;;13.30;99.90;;;;;;4999220;28;20510;-82
2023/04/21 12:40:09;;;;;;;2.88;2.67;;;13.60;99.90;;;;;;5014663;28;20120;-83
2023/04/21 12:42:36;;;;;;;2.75;2.47;;;14.30;99.90;;;;;;5035982;28;20889;-83
2023/04/21 12:45:05;;;;;;;2.72;2.53;;;14.80;99.90;;;;;;5003050;28;20117;-84
2023/04/21 12:47:35;;;;;;;2.35;2.13;;;15.00;99.90;;;;;;4998283;28;20089;-82
2023/04/21 12:50:03;;;;;;;2.53;2.17;;;15.10;99.90;;;;;;5000736;28;20905;-83
2023/04/21 12:52:30;;;;;;;2.55;2.35;;;15.10;99.90;;;;;;5013442;28;20073;-82
2023/04/21 12:54:57;;;;;;;3.00;2.67;;;15.00;99.90;;;;;;5010786;28;20135;-83
2023/04/21 12:57:24;;;;;;;2.95;2.65;;;14.70;99.90;;;;;;4997049;28;20674;-82
2023/04/21 12:59:51;;;;;;;2.88;2.67;;;14.30;99.90;;;;;;4984736;28;20593;-82
2023/04/21 13:02:18;;;;;;;3.17;2.80;;;14.50;99.90;;;;;;5016767;28;20068;-84